sensor_id;sensor_type;location;lat;lon;timestamp;P1;durP1;ratioP1;P2;durP2;ratioP2
44995;SDS011;30729;49.486;10.792;2023-02-15T17:05:42;50.22;;;26.00;;
44995;SDS011;30729;49.486;10.792;2023-02-15T17:08:14;86.40;;;35.15;;
44995;SDS011;30729;49.486;10.792;2023-02-15T17:13:23;63.83;;;28.75;;
44995;SDS011;30729;49.486;10.792;2023-02-15T17:18:25;52.53;;;24.45;;
44995;SDS011;30729;49.486;10.792;2023-02-15T17:20:52;52.25;;;27.80;;
44995;SDS011;30729;49.486;10.792;2023-02-15T17:23:31;56.03;;;26.67;;
44995;SDS011;30729;49.486;10.792;2023-02-15T17:25:57;57.47;;;27.63;;
44995;SDS011;30729;49.486;10.792;2023-02-15T17:28:23;70.70;;;32.35;;
44995;SDS011;30729;49.486;10.792;2023-02-15T17:30:49;72.35;;;32.17;;
44995;SDS011;30729;49.486;10.792;2023-02-15T17:33:58;70.40;;;32.15;;
44995;SDS011;30729;49.486;10.792;2023-02-15T17:41:21;48.05;;;24.45;;
44995;SDS011;30729;49.486;10.792;2023-02-15T17:43:47;49.63;;;25.63;;
44995;SDS011;30729;49.486;10.792;2023-02-15T17:46:12;48.08;;;23.20;;
44995;SDS011;30729;49.486;10.792;2023-02-15T17:48:39;41.70;;;21.38;;
44995;SDS011;30729;49.486;10.792;2023-02-15T17:51:06;52.00;;;22.60;;
44995;SDS011;30729;49.486;10.792;2023-02-15T17:53:32;41.70;;;21.15;;
44995;SDS011;30729;49.486;10.792;2023-02-15T17:55:57;44.85;;;21.83;;
44995;SDS011;30729;49.486;10.792;2023-02-15T17:58:23;48.30;;;22.27;;
44995;SDS011;30729;49.486;10.792;2023-02-15T18:00:49;41.33;;;20.10;;
44995;SDS011;30729;49.486;10.792;2023-02-15T18:03:41;45.00;;;22.40;;
44995;SDS011;30729;49.486;10.792;2023-02-15T18:06:25;46.42;;;21.08;;
44995;SDS011;30729;49.486;10.792;2023-02-15T18:09:12;41.47;;;22.60;;
44995;SDS011;30729;49.486;10.792;2023-02-15T18:11:56;46.22;;;22.08;;
44995;SDS011;30729;49.486;10.792;2023-02-15T18:14:22;46.63;;;23.73;;
44995;SDS011;30729;49.486;10.792;2023-02-15T18:16:47;48.83;;;23.05;;
44995;SDS011;30729;49.486;10.792;2023-02-15T18:19:13;44.20;;;22.77;;
44995;SDS011;30729;49.486;10.792;2023-02-15T18:21:39;53.80;;;25.77;;
44995;SDS011;30729;49.486;10.792;2023-02-15T18:24:05;48.80;;;25.08;;
44995;SDS011;30729;49.486;10.792;2023-02-15T18:26:30;47.38;;;23.90;;
44995;SDS011;30729;49.486;10.792;2023-02-15T18:28:55;43.17;;;21.65;;
44995;SDS011;30729;49.486;10.792;2023-02-15T18:31:20;45.33;;;23.23;;
44995;SDS011;30729;49.486;10.792;2023-02-15T18:33:51;45.50;;;22.15;;
44995;SDS011;30729;49.486;10.792;2023-02-15T18:36:21;47.17;;;22.58;;
44995;SDS011;30729;49.486;10.792;2023-02-15T18:38:47;50.08;;;24.48;;
44995;SDS011;30729;49.486;10.792;2023-02-15T18:41:14;45.00;;;24.02;;
44995;SDS011;30729;49.486;10.792;2023-02-15T18:43:40;45.67;;;22.33;;
44995;SDS011;30729;49.486;10.792;2023-02-15T18:46:05;46.60;;;22.02;;
44995;SDS011;30729;49.486;10.792;2023-02-15T18:48:30;43.97;;;23.10;;
44995;SDS011;30729;49.486;10.792;2023-02-15T18:50:56;46.95;;;23.08;;
44995;SDS011;30729;49.486;10.792;2023-02-15T18:53:21;40.47;;;22.13;;
44995;SDS011;30729;49.486;10.792;2023-02-15T18:55:47;40.65;;;21.63;;
44995;SDS011;30729;49.486;10.792;2023-02-15T18:58:17;47.70;;;21.38;;
44995;SDS011;30729;49.486;10.792;2023-02-15T19:00:43;56.95;;;25.50;;
44995;SDS011;30729;49.486;10.792;2023-02-15T19:03:10;48.35;;;22.65;;
44995;SDS011;30729;49.486;10.792;2023-02-15T19:05:36;46.88;;;21.38;;
44995;SDS011;30729;49.486;10.792;2023-02-15T19:08:01;47.88;;;22.10;;
44995;SDS011;30729;49.486;10.792;2023-02-15T19:10:27;48.67;;;21.75;;
44995;SDS011;30729;49.486;10.792;2023-02-15T19:12:54;53.60;;;22.92;;
44995;SDS011;30729;49.486;10.792;2023-02-15T19:15:23;46.08;;;22.65;;
44995;SDS011;30729;49.486;10.792;2023-02-15T19:17:48;45.65;;;21.13;;
44995;SDS011;30729;49.486;10.792;2023-02-15T19:20:15;45.55;;;22.75;;
44995;SDS011;30729;49.486;10.792;2023-02-15T19:22:40;46.28;;;22.88;;
44995;SDS011;30729;49.486;10.792;2023-02-15T19:25:06;43.17;;;20.75;;
44995;SDS011;30729;49.486;10.792;2023-02-15T19:27:32;43.20;;;20.85;;
44995;SDS011;30729;49.486;10.792;2023-02-15T19:30:06;40.83;;;20.83;;
44995;SDS011;30729;49.486;10.792;2023-02-15T19:32:35;45.97;;;20.00;;
44995;SDS011;30729;49.486;10.792;2023-02-15T19:35:00;47.60;;;21.40;;
44995;SDS011;30729;49.486;10.792;2023-02-15T19:37:33;43.67;;;21.88;;
44995;SDS011;30729;49.486;10.792;2023-02-15T19:39:59;41.00;;;21.00;;
44995;SDS011;30729;49.486;10.792;2023-02-15T19:42:25;42.67;;;21.35;;
44995;SDS011;30729;49.486;10.792;2023-02-15T19:44:50;40.25;;;19.45;;
44995;SDS011;30729;49.486;10.792;2023-02-15T19:47:16;43.05;;;22.88;;
44995;SDS011;30729;49.486;10.792;2023-02-15T19:49:41;44.13;;;20.35;;
44995;SDS011;30729;49.486;10.792;2023-02-15T19:52:17;39.55;;;20.38;;
44995;SDS011;30729;49.486;10.792;2023-02-15T19:54:43;46.85;;;22.95;;
44995;SDS011;30729;49.486;10.792;2023-02-15T19:57:12;42.63;;;22.63;;
44995;SDS011;30729;49.486;10.792;2023-02-15T19:59:38;43.28;;;21.60;;
44995;SDS011;30729;49.486;10.792;2023-02-15T20:02:03;38.30;;;19.58;;
44995;SDS011;30729;49.486;10.792;2023-02-15T20:04:29;41.13;;;20.33;;
44995;SDS011;30729;49.486;10.792;2023-02-15T20:06:54;42.85;;;19.60;;
44995;SDS011;30729;49.486;10.792;2023-02-15T20:11:47;40.53;;;19.73;;
44995;SDS011;30729;49.486;10.792;2023-02-15T20:14:13;43.33;;;19.52;;
44995;SDS011;30729;49.486;10.792;2023-02-15T20:16:39;45.60;;;21.98;;
44995;SDS011;30729;49.486;10.792;2023-02-15T20:19:04;46.83;;;21.98;;
44995;SDS011;30729;49.486;10.792;2023-02-15T20:21:30;49.63;;;23.55;;
44995;SDS011;30729;49.486;10.792;2023-02-15T20:23:55;47.42;;;21.85;;
44995;SDS011;30729;49.486;10.792;2023-02-15T20:26:20;42.63;;;22.83;;
44995;SDS011;30729;49.486;10.792;2023-02-15T20:28:47;42.58;;;23.38;;
44995;SDS011;30729;49.486;10.792;2023-02-15T20:31:16;49.90;;;24.13;;
44995;SDS011;30729;49.486;10.792;2023-02-15T20:33:42;41.88;;;21.08;;
44995;SDS011;30729;49.486;10.792;2023-02-15T20:36:14;44.80;;;21.58;;
44995;SDS011;30729;49.486;10.792;2023-02-15T20:38:40;44.22;;;20.17;;
44995;SDS011;30729;49.486;10.792;2023-02-15T20:41:07;41.92;;;21.95;;
44995;SDS011;30729;49.486;10.792;2023-02-15T20:43:52;42.30;;;20.15;;
44995;SDS011;30729;49.486;10.792;2023-02-15T20:46:17;43.88;;;20.17;;
44995;SDS011;30729;49.486;10.792;2023-02-15T20:48:43;43.42;;;21.33;;
44995;SDS011;30729;49.486;10.792;2023-02-15T20:51:26;43.15;;;20.17;;
44995;SDS011;30729;49.486;10.792;2023-02-15T20:53:51;41.15;;;18.63;;
44995;SDS011;30729;49.486;10.792;2023-02-15T20:56:17;43.95;;;21.67;;
44995;SDS011;30729;49.486;10.792;2023-02-15T20:58:43;44.72;;;19.80;;
44995;SDS011;30729;49.486;10.792;2023-02-15T21:01:09;44.10;;;19.98;;
44995;SDS011;30729;49.486;10.792;2023-02-15T21:03:35;44.83;;;19.27;;
44995;SDS011;30729;49.486;10.792;2023-02-15T21:06:00;39.95;;;19.35;;
44995;SDS011;30729;49.486;10.792;2023-02-15T21:08:25;42.20;;;19.90;;
44995;SDS011;30729;49.486;10.792;2023-02-15T21:10:51;43.25;;;17.98;;
44995;SDS011;30729;49.486;10.792;2023-02-15T21:15:45;50.83;;;21.42;;
44995;SDS011;30729;49.486;10.792;2023-02-15T21:18:12;40.83;;;18.65;;
44995;SDS011;30729;49.486;10.792;2023-02-15T21:20:39;38.95;;;19.15;;
44995;SDS011;30729;49.486;10.792;2023-02-15T21:23:09;44.08;;;19.05;;
44995;SDS011;30729;49.486;10.792;2023-02-15T21:25:36;42.85;;;19.42;;
44995;SDS011;30729;49.486;10.792;2023-02-15T21:28:02;41.28;;;19.55;;
44995;SDS011;30729;49.486;10.792;2023-02-15T21:30:27;42.05;;;18.98;;
44995;SDS011;30729;49.486;10.792;2023-02-15T21:32:53;41.38;;;17.92;;
44995;SDS011;30729;49.486;10.792;2023-02-15T21:35:19;41.47;;;17.63;;
44995;SDS011;30729;49.486;10.792;2023-02-15T21:37:45;43.13;;;18.88;;
44995;SDS011;30729;49.486;10.792;2023-02-15T21:42:35;38.85;;;17.38;;
44995;SDS011;30729;49.486;10.792;2023-02-15T21:45:27;41.88;;;20.13;;
44995;SDS011;30729;49.486;10.792;2023-02-15T21:48:11;41.88;;;17.17;;
44995;SDS011;30729;49.486;10.792;2023-02-15T21:50:37;44.88;;;19.95;;
44995;SDS011;30729;49.486;10.792;2023-02-15T21:53:24;41.60;;;20.42;;
44995;SDS011;30729;49.486;10.792;2023-02-15T21:55:51;38.88;;;18.17;;
44995;SDS011;30729;49.486;10.792;2023-02-15T21:58:19;40.47;;;18.85;;
44995;SDS011;30729;49.486;10.792;2023-02-15T22:00:45;41.90;;;18.52;;
44995;SDS011;30729;49.486;10.792;2023-02-15T22:03:10;36.22;;;17.45;;
44995;SDS011;30729;49.486;10.792;2023-02-15T22:05:36;37.75;;;18.58;;
44995;SDS011;30729;49.486;10.792;2023-02-15T22:08:01;41.13;;;16.40;;
44995;SDS011;30729;49.486;10.792;2023-02-15T22:10:30;46.30;;;19.25;;
44995;SDS011;30729;49.486;10.792;2023-02-15T22:12:56;36.13;;;17.75;;
44995;SDS011;30729;49.486;10.792;2023-02-15T22:15:24;42.67;;;20.20;;
44995;SDS011;30729;49.486;10.792;2023-02-15T22:17:50;36.33;;;17.55;;
44995;SDS011;30729;49.486;10.792;2023-02-15T22:20:20;43.50;;;19.98;;
44995;SDS011;30729;49.486;10.792;2023-02-15T22:22:46;47.30;;;18.55;;
44995;SDS011;30729;49.486;10.792;2023-02-15T22:25:13;42.33;;;19.23;;
44995;SDS011;30729;49.486;10.792;2023-02-15T22:27:39;38.67;;;17.48;;
44995;SDS011;30729;49.486;10.792;2023-02-15T22:30:26;36.45;;;17.77;;
44995;SDS011;30729;49.486;10.792;2023-02-15T22:32:50;39.55;;;16.80;;
44995;SDS011;30729;49.486;10.792;2023-02-15T22:35:17;35.75;;;16.20;;
44995;SDS011;30729;49.486;10.792;2023-02-15T22:37:44;42.25;;;19.10;;
44995;SDS011;30729;49.486;10.792;2023-02-15T22:40:12;43.58;;;17.30;;
44995;SDS011;30729;49.486;10.792;2023-02-15T22:42:38;37.22;;;18.35;;
44995;SDS011;30729;49.486;10.792;2023-02-15T22:45:03;45.83;;;16.88;;
44995;SDS011;30729;49.486;10.792;2023-02-15T22:47:28;38.67;;;16.45;;
44995;SDS011;30729;49.486;10.792;2023-02-15T22:49:56;38.67;;;19.05;;
44995;SDS011;30729;49.486;10.792;2023-02-15T22:52:21;37.75;;;17.52;;
44995;SDS011;30729;49.486;10.792;2023-02-15T22:54:46;38.75;;;18.88;;
44995;SDS011;30729;49.486;10.792;2023-02-15T22:57:16;38.13;;;18.02;;
44995;SDS011;30729;49.486;10.792;2023-02-15T22:59:43;39.85;;;18.85;;
44995;SDS011;30729;49.486;10.792;2023-02-15T23:02:09;36.03;;;16.75;;
44995;SDS011;30729;49.486;10.792;2023-02-15T23:04:36;35.60;;;18.15;;
44995;SDS011;30729;49.486;10.792;2023-02-15T23:07:04;41.47;;;19.60;;
44995;SDS011;30729;49.486;10.792;2023-02-15T23:09:29;42.15;;;18.17;;
44995;SDS011;30729;49.486;10.792;2023-02-15T23:11:55;40.22;;;18.98;;
44995;SDS011;30729;49.486;10.792;2023-02-15T23:16:46;35.92;;;16.85;;
44995;SDS011;30729;49.486;10.792;2023-02-15T23:19:11;36.30;;;17.80;;
44995;SDS011;30729;49.486;10.792;2023-02-15T23:21:36;41.67;;;19.00;;
44995;SDS011;30729;49.486;10.792;2023-02-15T23:26:36;38.45;;;18.60;;
44995;SDS011;30729;49.486;10.792;2023-02-15T23:29:01;40.22;;;17.25;;
44995;SDS011;30729;49.486;10.792;2023-02-15T23:31:29;44.30;;;18.33;;
44995;SDS011;30729;49.486;10.792;2023-02-15T23:33:55;37.90;;;18.33;;
44995;SDS011;30729;49.486;10.792;2023-02-15T23:38:52;34.65;;;17.17;;
44995;SDS011;30729;49.486;10.792;2023-02-15T23:41:19;41.13;;;18.58;;
44995;SDS011;30729;49.486;10.792;2023-02-15T23:43:46;39.50;;;18.27;;
